CYJT

Stephenville Airport

Stephenville, Canada
METAR CYJT 212100Z 23012KT 15SM FEW011 SCT022 SCT080 10/08 A2971 RMK SC1CU2AC1 SLP062
Observed Flight Rules
Jun-21 @ 21:00 UTC (an hour ago) Visual Flight Rules
Wind Visibility Clouds
230° at 12 knots 15 miles
  • Few at 1,100' AGL
  • Scattered at 2,200' AGL
  • Scattered at 8,000' AGL
Temperatures Readings
Current 10°C / 50°F
Dewpoint 8°C / 46°F
Humidity 88%
Altimeter 29.71" Hg
Pressure 1006.2 hPa
Elevation 26
METAR CYJT 212100Z 23012KT 15SM FEW011 SCT022 SCT080 10/08 A2971 RMK SC1CU2AC1 SLP062
Observed Flight Rules
Jun-21 @ 21:00 UTC
(an hour ago)
VFR
Wind Visibility
230° at 12 knots 15 miles
Clouds
  • Few at 1,100' AGL
  • Scattered at 2,200' AGL
  • Scattered at 8,000' AGL
Temperature Dewpoint
10°C / 50°F 8°C / 46°F
Humidity Altimeter Pressure
88% 29.71" Hg 1006.2 hPa